sensor_id;sensor_type;location;lat;lon;timestamp;P1;durP1;ratioP1;P2;durP2;ratioP2
56736;SDS011;42618;51.226;4.910;2024-03-07T00:00:47;76.00;;;33.10;;
56736;SDS011;42618;51.226;4.910;2024-03-07T00:04:34;79.55;;;34.45;;
56736;SDS011;42618;51.226;4.910;2024-03-07T00:08:15;82.93;;;34.38;;
56736;SDS011;42618;51.226;4.910;2024-03-07T00:12:06;79.07;;;33.60;;
56736;SDS011;42618;51.226;4.910;2024-03-07T00:16:11;90.88;;;35.65;;
56736;SDS011;42618;51.226;4.910;2024-03-07T00:19:40;79.07;;;33.33;;
56736;SDS011;42618;51.226;4.910;2024-03-07T00:27:22;79.32;;;32.53;;
56736;SDS011;42618;51.226;4.910;2024-03-07T00:31:28;83.68;;;33.78;;
56736;SDS011;42618;51.226;4.910;2024-03-07T00:35:51;79.57;;;31.95;;
56736;SDS011;42618;51.226;4.910;2024-03-07T00:39:20;67.13;;;28.33;;
56736;SDS011;42618;51.226;4.910;2024-03-07T00:42:54;69.70;;;28.02;;
56736;SDS011;42618;51.226;4.910;2024-03-07T00:46:30;73.43;;;28.23;;
56736;SDS011;42618;51.226;4.910;2024-03-07T00:50:27;75.85;;;28.50;;
56736;SDS011;42618;51.226;4.910;2024-03-07T00:54:14;67.57;;;26.73;;
56736;SDS011;42618;51.226;4.910;2024-03-07T00:58:16;78.22;;;32.85;;
56736;SDS011;42618;51.226;4.910;2024-03-07T01:02:12;79.50;;;30.35;;
56736;SDS011;42618;51.226;4.910;2024-03-07T01:05:54;76.05;;;27.63;;
56736;SDS011;42618;51.226;4.910;2024-03-07T01:09:39;72.38;;;27.45;;
56736;SDS011;42618;51.226;4.910;2024-03-07T01:13:21;65.70;;;26.83;;
56736;SDS011;42618;51.226;4.910;2024-03-07T01:16:57;64.35;;;26.23;;
56736;SDS011;42618;51.226;4.910;2024-03-07T01:20:57;64.90;;;26.45;;
56736;SDS011;42618;51.226;4.910;2024-03-07T01:24:48;70.68;;;28.05;;
56736;SDS011;42618;51.226;4.910;2024-03-07T01:28:29;71.05;;;26.65;;
56736;SDS011;42618;51.226;4.910;2024-03-07T01:32:09;74.28;;;29.05;;
56736;SDS011;42618;51.226;4.910;2024-03-07T01:35:47;65.55;;;27.67;;
56736;SDS011;42618;51.226;4.910;2024-03-07T01:40:10;69.20;;;28.30;;
56736;SDS011;42618;51.226;4.910;2024-03-07T01:43:42;66.75;;;26.77;;
56736;SDS011;42618;51.226;4.910;2024-03-07T01:47:20;73.95;;;30.98;;
56736;SDS011;42618;51.226;4.910;2024-03-07T01:51:10;69.68;;;28.52;;
56736;SDS011;42618;51.226;4.910;2024-03-07T01:54:47;72.07;;;27.92;;
56736;SDS011;42618;51.226;4.910;2024-03-07T01:58:54;88.97;;;35.70;;
56736;SDS011;42618;51.226;4.910;2024-03-07T02:02:59;90.55;;;34.80;;
56736;SDS011;42618;51.226;4.910;2024-03-07T02:06:47;88.80;;;35.67;;
56736;SDS011;42618;51.226;4.910;2024-03-07T02:10:41;89.03;;;35.75;;
56736;SDS011;42618;51.226;4.910;2024-03-07T02:14:39;84.50;;;34.72;;
56736;SDS011;42618;51.226;4.910;2024-03-07T02:18:13;97.80;;;36.55;;
56736;SDS011;42618;51.226;4.910;2024-03-07T02:21:52;87.05;;;33.80;;
56736;SDS011;42618;51.226;4.910;2024-03-07T02:25:20;89.28;;;34.50;;
56736;SDS011;42618;51.226;4.910;2024-03-07T02:28:58;87.63;;;35.42;;
56736;SDS011;42618;51.226;4.910;2024-03-07T02:32:54;99.22;;;35.85;;
56736;SDS011;42618;51.226;4.910;2024-03-07T02:36:42;93.70;;;35.65;;
56736;SDS011;42618;51.226;4.910;2024-03-07T02:40:16;96.47;;;35.63;;
56736;SDS011;42618;51.226;4.910;2024-03-07T02:44:13;84.68;;;33.63;;
56736;SDS011;42618;51.226;4.910;2024-03-07T02:47:55;85.03;;;33.92;;
56736;SDS011;42618;51.226;4.910;2024-03-07T02:51:31;85.75;;;35.22;;
56736;SDS011;42618;51.226;4.910;2024-03-07T02:55:08;82.20;;;33.45;;
56736;SDS011;42618;51.226;4.910;2024-03-07T02:59:07;92.50;;;34.25;;
56736;SDS011;42618;51.226;4.910;2024-03-07T03:02:55;82.22;;;33.33;;
56736;SDS011;42618;51.226;4.910;2024-03-07T03:06:24;95.25;;;34.42;;
56736;SDS011;42618;51.226;4.910;2024-03-07T03:10:10;93.20;;;35.70;;
56736;SDS011;42618;51.226;4.910;2024-03-07T03:14:10;93.95;;;35.20;;
56736;SDS011;42618;51.226;4.910;2024-03-07T03:18:18;94.15;;;34.78;;
56736;SDS011;42618;51.226;4.910;2024-03-07T03:21:56;98.38;;;35.38;;
56736;SDS011;42618;51.226;4.910;2024-03-07T03:26:07;98.28;;;36.67;;
56736;SDS011;42618;51.226;4.910;2024-03-07T03:30:04;98.88;;;36.08;;
56736;SDS011;42618;51.226;4.910;2024-03-07T03:33:43;100.43;;;36.63;;
56736;SDS011;42618;51.226;4.910;2024-03-07T03:37:27;97.72;;;35.40;;
56736;SDS011;42618;51.226;4.910;2024-03-07T03:40:57;96.25;;;35.60;;
56736;SDS011;42618;51.226;4.910;2024-03-07T03:44:26;98.57;;;35.63;;
56736;SDS011;42618;51.226;4.910;2024-03-07T03:48:07;92.28;;;34.80;;
56736;SDS011;42618;51.226;4.910;2024-03-07T03:51:56;91.97;;;34.80;;
56736;SDS011;42618;51.226;4.910;2024-03-07T03:55:45;100.60;;;35.58;;
56736;SDS011;42618;51.226;4.910;2024-03-07T03:59:27;110.78;;;35.05;;
56736;SDS011;42618;51.226;4.910;2024-03-07T04:03:17;106.60;;;36.83;;
56736;SDS011;42618;51.226;4.910;2024-03-07T04:07:06;105.45;;;36.65;;
56736;SDS011;42618;51.226;4.910;2024-03-07T04:10:45;106.28;;;38.13;;
56736;SDS011;42618;51.226;4.910;2024-03-07T04:14:19;96.32;;;35.42;;
56736;SDS011;42618;51.226;4.910;2024-03-07T04:18:15;99.43;;;35.63;;
56736;SDS011;42618;51.226;4.910;2024-03-07T04:22:02;105.72;;;37.20;;
56736;SDS011;42618;51.226;4.910;2024-03-07T04:26:01;96.00;;;36.42;;
56736;SDS011;42618;51.226;4.910;2024-03-07T04:30:05;92.13;;;35.30;;
56736;SDS011;42618;51.226;4.910;2024-03-07T04:33:41;94.57;;;34.15;;
56736;SDS011;42618;51.226;4.910;2024-03-07T04:37:25;94.78;;;36.03;;
56736;SDS011;42618;51.226;4.910;2024-03-07T04:41:13;95.80;;;35.53;;
56736;SDS011;42618;51.226;4.910;2024-03-07T04:44:49;99.57;;;37.22;;
56736;SDS011;42618;51.226;4.910;2024-03-07T04:48:35;115.50;;;38.47;;
56736;SDS011;42618;51.226;4.910;2024-03-07T04:52:11;110.35;;;38.92;;
56736;SDS011;42618;51.226;4.910;2024-03-07T04:55:50;123.90;;;40.33;;
56736;SDS011;42618;51.226;4.910;2024-03-07T04:59:22;121.70;;;40.30;;
56736;SDS011;42618;51.226;4.910;2024-03-07T05:03:09;142.45;;;42.10;;
56736;SDS011;42618;51.226;4.910;2024-03-07T05:06:48;126.30;;;38.97;;
56736;SDS011;42618;51.226;4.910;2024-03-07T05:10:52;145.93;;;45.53;;
56736;SDS011;42618;51.226;4.910;2024-03-07T05:14:32;137.70;;;40.33;;
56736;SDS011;42618;51.226;4.910;2024-03-07T05:18:10;147.50;;;45.67;;
56736;SDS011;42618;51.226;4.910;2024-03-07T05:21:41;144.93;;;43.28;;
56736;SDS011;42618;51.226;4.910;2024-03-07T05:25:35;149.25;;;44.03;;
56736;SDS011;42618;51.226;4.910;2024-03-07T05:29:13;164.23;;;46.92;;
56736;SDS011;42618;51.226;4.910;2024-03-07T05:32:53;155.25;;;45.20;;
56736;SDS011;42618;51.226;4.910;2024-03-07T05:36:32;150.60;;;45.33;;
56736;SDS011;42618;51.226;4.910;2024-03-07T05:40:01;151.43;;;42.88;;
56736;SDS011;42618;51.226;4.910;2024-03-07T05:43:36;144.82;;;44.85;;
56736;SDS011;42618;51.226;4.910;2024-03-07T05:47:15;134.40;;;43.42;;
56736;SDS011;42618;51.226;4.910;2024-03-07T05:50:45;148.15;;;43.88;;
56736;SDS011;42618;51.226;4.910;2024-03-07T05:54:32;141.60;;;42.90;;
56736;SDS011;42618;51.226;4.910;2024-03-07T05:58:06;150.82;;;42.53;;
56736;SDS011;42618;51.226;4.910;2024-03-07T06:01:36;143.80;;;43.10;;
56736;SDS011;42618;51.226;4.910;2024-03-07T06:05:04;138.38;;;43.20;;
56736;SDS011;42618;51.226;4.910;2024-03-07T06:08:48;128.88;;;42.17;;
56736;SDS011;42618;51.226;4.910;2024-03-07T06:12:15;125.43;;;40.95;;
56736;SDS011;42618;51.226;4.910;2024-03-07T06:15:57;118.05;;;38.45;;
56736;SDS011;42618;51.226;4.910;2024-03-07T06:19:33;115.00;;;36.25;;
56736;SDS011;42618;51.226;4.910;2024-03-07T06:23:28;101.93;;;33.53;;
56736;SDS011;42618;51.226;4.910;2024-03-07T06:27:04;107.18;;;33.45;;
56736;SDS011;42618;51.226;4.910;2024-03-07T06:30:56;114.60;;;37.50;;
56736;SDS011;42618;51.226;4.910;2024-03-07T06:34:26;107.10;;;33.85;;
56736;SDS011;42618;51.226;4.910;2024-03-07T06:37:58;113.40;;;33.38;;
56736;SDS011;42618;51.226;4.910;2024-03-07T06:41:30;120.38;;;37.00;;
56736;SDS011;42618;51.226;4.910;2024-03-07T06:45:00;115.80;;;39.90;;
56736;SDS011;42618;51.226;4.910;2024-03-07T06:48:30;123.55;;;42.15;;
56736;SDS011;42618;51.226;4.910;2024-03-07T06:52:11;131.70;;;41.92;;
56736;SDS011;42618;51.226;4.910;2024-03-07T06:55:49;118.28;;;42.67;;
56736;SDS011;42618;51.226;4.910;2024-03-07T06:59:15;124.25;;;42.13;;
56736;SDS011;42618;51.226;4.910;2024-03-07T07:03:05;118.00;;;42.35;;
56736;SDS011;42618;51.226;4.910;2024-03-07T07:06:51;133.68;;;42.92;;
56736;SDS011;42618;51.226;4.910;2024-03-07T07:10:23;135.25;;;42.45;;
56736;SDS011;42618;51.226;4.910;2024-03-07T07:14:12;122.25;;;41.67;;
56736;SDS011;42618;51.226;4.910;2024-03-07T07:17:54;123.65;;;42.53;;
56736;SDS011;42618;51.226;4.910;2024-03-07T07:21:26;113.55;;;36.88;;
56736;SDS011;42618;51.226;4.910;2024-03-07T07:24:53;115.75;;;38.10;;
56736;SDS011;42618;51.226;4.910;2024-03-07T07:28:21;109.22;;;37.28;;
56736;SDS011;42618;51.226;4.910;2024-03-07T07:31:55;116.43;;;38.17;;
56736;SDS011;42618;51.226;4.910;2024-03-07T07:35:36;111.15;;;36.67;;
56736;SDS011;42618;51.226;4.910;2024-03-07T07:39:12;103.95;;;36.10;;
56736;SDS011;42618;51.226;4.910;2024-03-07T07:42:47;108.50;;;35.58;;
56736;SDS011;42618;51.226;4.910;2024-03-07T07:46:17;106.07;;;34.78;;
56736;SDS011;42618;51.226;4.910;2024-03-07T07:49:45;98.38;;;35.45;;
56736;SDS011;42618;51.226;4.910;2024-03-07T07:53:24;90.68;;;33.38;;
56736;SDS011;42618;51.226;4.910;2024-03-07T07:56:55;98.40;;;34.88;;
56736;SDS011;42618;51.226;4.910;2024-03-07T08:00:40;93.90;;;34.30;;
56736;SDS011;42618;51.226;4.910;2024-03-07T08:04:13;92.63;;;34.20;;
56736;SDS011;42618;51.226;4.910;2024-03-07T08:07:46;89.80;;;34.58;;
56736;SDS011;42618;51.226;4.910;2024-03-07T08:11:21;83.43;;;31.50;;
56736;SDS011;42618;51.226;4.910;2024-03-07T08:15:12;76.97;;;31.77;;
56736;SDS011;42618;51.226;4.910;2024-03-07T08:18:48;85.20;;;31.48;;
56736;SDS011;42618;51.226;4.910;2024-03-07T08:22:29;72.72;;;29.13;;
56736;SDS011;42618;51.226;4.910;2024-03-07T08:25:58;79.10;;;30.33;;
56736;SDS011;42618;51.226;4.910;2024-03-07T08:29:34;72.57;;;28.40;;
56736;SDS011;42618;51.226;4.910;2024-03-07T08:33:10;72.63;;;29.33;;
56736;SDS011;42618;51.226;4.910;2024-03-07T08:36:41;74.72;;;30.27;;
56736;SDS011;42618;51.226;4.910;2024-03-07T08:40:16;64.57;;;28.07;;
56736;SDS011;42618;51.226;4.910;2024-03-07T08:43:51;63.70;;;26.02;;
56736;SDS011;42618;51.226;4.910;2024-03-07T08:47:16;115.35;;;53.83;;
56736;SDS011;42618;51.226;4.910;2024-03-07T08:50:42;65.70;;;27.95;;
56736;SDS011;42618;51.226;4.910;2024-03-07T08:54:07;56.88;;;24.85;;
56736;SDS011;42618;51.226;4.910;2024-03-07T08:57:38;61.33;;;25.05;;
56736;SDS011;42618;51.226;4.910;2024-03-07T09:01:03;55.45;;;26.23;;
56736;SDS011;42618;51.226;4.910;2024-03-07T09:04:29;49.97;;;23.92;;
56736;SDS011;42618;51.226;4.910;2024-03-07T09:07:55;51.30;;;25.02;;
56736;SDS011;42618;51.226;4.910;2024-03-07T09:11:20;48.60;;;23.27;;
56736;SDS011;42618;51.226;4.910;2024-03-07T09:14:50;47.00;;;23.08;;
56736;SDS011;42618;51.226;4.910;2024-03-07T09:18:15;48.75;;;21.40;;
56736;SDS011;42618;51.226;4.910;2024-03-07T09:21:41;48.35;;;23.30;;
56736;SDS011;42618;51.226;4.910;2024-03-07T09:25:16;47.67;;;24.70;;
56736;SDS011;42618;51.226;4.910;2024-03-07T09:28:41;45.50;;;20.17;;
56736;SDS011;42618;51.226;4.910;2024-03-07T09:32:07;42.30;;;19.95;;
56736;SDS011;42618;51.226;4.910;2024-03-07T09:35:37;42.17;;;20.90;;
56736;SDS011;42618;51.226;4.910;2024-03-07T09:39:03;41.83;;;19.08;;
56736;SDS011;42618;51.226;4.910;2024-03-07T09:42:30;39.92;;;19.70;;
56736;SDS011;42618;51.226;4.910;2024-03-07T09:45:56;41.45;;;18.17;;
56736;SDS011;42618;51.226;4.910;2024-03-07T09:49:24;42.70;;;19.50;;
56736;SDS011;42618;51.226;4.910;2024-03-07T09:52:52;39.10;;;19.75;;
56736;SDS011;42618;51.226;4.910;2024-03-07T09:59:44;34.92;;;17.30;;
56736;SDS011;42618;51.226;4.910;2024-03-07T10:03:11;39.10;;;16.80;;
56736;SDS011;42618;51.226;4.910;2024-03-07T10:06:41;38.50;;;18.50;;
56736;SDS011;42618;51.226;4.910;2024-03-07T10:10:06;35.72;;;18.50;;
56736;SDS011;42618;51.226;4.910;2024-03-07T10:13:32;37.55;;;18.13;;
56736;SDS011;42618;51.226;4.910;2024-03-07T10:17:00;44.88;;;23.67;;
56736;SDS011;42618;51.226;4.910;2024-03-07T10:20:27;42.55;;;19.35;;
56736;SDS011;42618;51.226;4.910;2024-03-07T10:24:05;38.85;;;18.67;;
56736;SDS011;42618;51.226;4.910;2024-03-07T10:27:30;42.67;;;20.13;;
56736;SDS011;42618;51.226;4.910;2024-03-07T10:30:57;42.38;;;20.77;;
56736;SDS011;42618;51.226;4.910;2024-03-07T10:34:33;45.08;;;21.00;;
56736;SDS011;42618;51.226;4.910;2024-03-07T10:37:58;36.40;;;19.30;;
56736;SDS011;42618;51.226;4.910;2024-03-07T10:41:41;40.15;;;20.83;;
56736;SDS011;42618;51.226;4.910;2024-03-07T10:45:18;40.40;;;21.85;;
56736;SDS011;42618;51.226;4.910;2024-03-07T10:48:49;44.35;;;21.63;;
56736;SDS011;42618;51.226;4.910;2024-03-07T10:53:03;43.20;;;21.63;;
56736;SDS011;42618;51.226;4.910;2024-03-07T10:57:07;42.17;;;21.63;;
56736;SDS011;42618;51.226;4.910;2024-03-07T11:00:47;41.67;;;24.67;;
56736;SDS011;42618;51.226;4.910;2024-03-07T11:04:33;44.83;;;22.88;;
56736;SDS011;42618;51.226;4.910;2024-03-07T11:07:59;44.28;;;23.05;;
56736;SDS011;42618;51.226;4.910;2024-03-07T11:11:26;42.67;;;21.95;;
56736;SDS011;42618;51.226;4.910;2024-03-07T11:14:54;149.98;;;66.88;;
56736;SDS011;42618;51.226;4.910;2024-03-07T11:18:23;64.60;;;31.48;;
56736;SDS011;42618;51.226;4.910;2024-03-07T11:22:03;42.67;;;22.25;;
56736;SDS011;42618;51.226;4.910;2024-03-07T11:25:49;30.43;;;16.10;;
56736;SDS011;42618;51.226;4.910;2024-03-07T11:33:01;34.55;;;18.17;;
56736;SDS011;42618;51.226;4.910;2024-03-07T11:43:46;35.40;;;18.73;;
56736;SDS011;42618;51.226;4.910;2024-03-07T11:47:25;30.30;;;15.95;;
56736;SDS011;42618;51.226;4.910;2024-03-07T11:50:50;27.05;;;13.85;;
56736;SDS011;42618;51.226;4.910;2024-03-07T11:54:17;26.52;;;14.75;;
56736;SDS011;42618;51.226;4.910;2024-03-07T11:57:45;37.65;;;19.88;;
56736;SDS011;42618;51.226;4.910;2024-03-07T12:01:11;33.22;;;17.20;;
56736;SDS011;42618;51.226;4.910;2024-03-07T12:04:36;34.63;;;17.55;;
56736;SDS011;42618;51.226;4.910;2024-03-07T12:08:02;32.67;;;17.67;;
56736;SDS011;42618;51.226;4.910;2024-03-07T12:11:32;40.72;;;20.27;;
56736;SDS011;42618;51.226;4.910;2024-03-07T12:14:59;33.10;;;16.20;;
56736;SDS011;42618;51.226;4.910;2024-03-07T12:18:25;31.80;;;16.58;;
56736;SDS011;42618;51.226;4.910;2024-03-07T12:21:51;31.42;;;15.88;;
56736;SDS011;42618;51.226;4.910;2024-03-07T12:25:23;27.05;;;16.00;;
56736;SDS011;42618;51.226;4.910;2024-03-07T12:28:52;29.27;;;16.20;;
56736;SDS011;42618;51.226;4.910;2024-03-07T12:32:19;31.08;;;15.45;;
56736;SDS011;42618;51.226;4.910;2024-03-07T12:35:46;26.40;;;15.20;;
56736;SDS011;42618;51.226;4.910;2024-03-07T12:39:24;25.60;;;13.10;;
56736;SDS011;42618;51.226;4.910;2024-03-07T12:42:52;23.85;;;12.00;;
56736;SDS011;42618;51.226;4.910;2024-03-07T12:46:18;29.23;;;14.82;;
56736;SDS011;42618;51.226;4.910;2024-03-07T12:49:44;24.15;;;13.75;;
56736;SDS011;42618;51.226;4.910;2024-03-07T12:53:13;23.80;;;12.45;;
56736;SDS011;42618;51.226;4.910;2024-03-07T12:56:38;26.55;;;13.88;;
56736;SDS011;42618;51.226;4.910;2024-03-07T13:00:06;24.55;;;12.70;;
56736;SDS011;42618;51.226;4.910;2024-03-07T13:03:32;19.38;;;10.25;;
56736;SDS011;42618;51.226;4.910;2024-03-07T13:10:24;21.27;;;11.88;;
56736;SDS011;42618;51.226;4.910;2024-03-07T13:13:50;18.13;;;11.10;;
56736;SDS011;42618;51.226;4.910;2024-03-07T13:17:16;20.88;;;12.18;;
56736;SDS011;42618;51.226;4.910;2024-03-07T13:20:41;21.45;;;12.65;;
56736;SDS011;42618;51.226;4.910;2024-03-07T13:24:07;21.05;;;11.55;;
56736;SDS011;42618;51.226;4.910;2024-03-07T13:27:41;20.20;;;12.55;;
56736;SDS011;42618;51.226;4.910;2024-03-07T13:31:08;26.70;;;12.68;;
56736;SDS011;42618;51.226;4.910;2024-03-07T13:34:33;22.00;;;12.30;;
56736;SDS011;42618;51.226;4.910;2024-03-07T13:38:00;21.90;;;12.27;;
56736;SDS011;42618;51.226;4.910;2024-03-07T13:41:25;18.63;;;10.95;;
56736;SDS011;42618;51.226;4.910;2024-03-07T13:44:51;18.10;;;11.10;;
56736;SDS011;42618;51.226;4.910;2024-03-07T13:48:17;21.92;;;12.20;;
56736;SDS011;42618;51.226;4.910;2024-03-07T13:51:43;20.42;;;11.30;;
56736;SDS011;42618;51.226;4.910;2024-03-07T13:55:29;18.77;;;11.07;;
56736;SDS011;42618;51.226;4.910;2024-03-07T14:02:56;17.23;;;11.35;;
56736;SDS011;42618;51.226;4.910;2024-03-07T14:19:13;17.77;;;10.13;;
56736;SDS011;42618;51.226;4.910;2024-03-07T14:27:16;18.08;;;11.23;;
56736;SDS011;42618;51.226;4.910;2024-03-07T14:31:13;19.75;;;11.98;;
56736;SDS011;42618;51.226;4.910;2024-03-07T14:34:58;18.33;;;11.32;;
56736;SDS011;42618;51.226;4.910;2024-03-07T14:38:27;19.42;;;11.20;;
56736;SDS011;42618;51.226;4.910;2024-03-07T14:41:57;20.27;;;11.35;;
56736;SDS011;42618;51.226;4.910;2024-03-07T14:45:26;22.63;;;11.80;;
56736;SDS011;42618;51.226;4.910;2024-03-07T14:48:56;23.33;;;11.68;;
56736;SDS011;42618;51.226;4.910;2024-03-07T14:52:22;21.70;;;12.03;;
56736;SDS011;42618;51.226;4.910;2024-03-07T14:55:48;16.33;;;10.50;;
56736;SDS011;42618;51.226;4.910;2024-03-07T14:59:13;21.52;;;11.20;;
56736;SDS011;42618;51.226;4.910;2024-03-07T15:02:49;19.05;;;10.80;;
56736;SDS011;42618;51.226;4.910;2024-03-07T15:06:15;23.20;;;12.20;;
56736;SDS011;42618;51.226;4.910;2024-03-07T15:09:40;22.38;;;11.98;;
56736;SDS011;42618;51.226;4.910;2024-03-07T15:13:17;18.55;;;11.80;;
56736;SDS011;42618;51.226;4.910;2024-03-07T15:16:54;20.73;;;12.38;;
56736;SDS011;42618;51.226;4.910;2024-03-07T15:20:20;18.95;;;11.43;;
56736;SDS011;42618;51.226;4.910;2024-03-07T15:23:47;19.50;;;10.88;;
56736;SDS011;42618;51.226;4.910;2024-03-07T15:27:13;25.80;;;11.73;;
56736;SDS011;42618;51.226;4.910;2024-03-07T15:30:38;17.67;;;10.83;;
56736;SDS011;42618;51.226;4.910;2024-03-07T15:34:04;18.67;;;11.38;;
56736;SDS011;42618;51.226;4.910;2024-03-07T15:37:31;28.08;;;15.60;;
56736;SDS011;42618;51.226;4.910;2024-03-07T15:40:59;19.90;;;11.07;;
56736;SDS011;42618;51.226;4.910;2024-03-07T15:44:26;17.73;;;10.30;;
56736;SDS011;42618;51.226;4.910;2024-03-07T15:47:52;20.38;;;10.82;;
56736;SDS011;42618;51.226;4.910;2024-03-07T15:54:44;15.10;;;9.43;;
56736;SDS011;42618;51.226;4.910;2024-03-07T15:58:10;13.13;;;7.53;;
56736;SDS011;42618;51.226;4.910;2024-03-07T16:01:36;15.27;;;9.10;;
56736;SDS011;42618;51.226;4.910;2024-03-07T16:05:02;17.17;;;9.65;;
56736;SDS011;42618;51.226;4.910;2024-03-07T16:08:28;15.13;;;8.13;;
56736;SDS011;42618;51.226;4.910;2024-03-07T16:11:54;17.40;;;9.35;;
56736;SDS011;42618;51.226;4.910;2024-03-07T16:15:20;17.10;;;9.70;;
56736;SDS011;42618;51.226;4.910;2024-03-07T16:18:46;15.43;;;9.07;;
56736;SDS011;42618;51.226;4.910;2024-03-07T16:22:13;17.55;;;10.30;;
56736;SDS011;42618;51.226;4.910;2024-03-07T16:25:41;14.18;;;9.43;;
56736;SDS011;42618;51.226;4.910;2024-03-07T16:29:06;15.40;;;8.70;;
56736;SDS011;42618;51.226;4.910;2024-03-07T16:32:34;16.33;;;9.57;;
56736;SDS011;42618;51.226;4.910;2024-03-07T16:36:00;21.33;;;11.75;;
56736;SDS011;42618;51.226;4.910;2024-03-07T16:39:25;18.02;;;10.25;;
56736;SDS011;42618;51.226;4.910;2024-03-07T16:42:56;19.13;;;10.85;;
56736;SDS011;42618;51.226;4.910;2024-03-07T16:49:50;21.27;;;10.88;;
56736;SDS011;42618;51.226;4.910;2024-03-07T16:53:15;22.25;;;12.27;;
56736;SDS011;42618;51.226;4.910;2024-03-07T16:56:41;20.85;;;11.27;;
56736;SDS011;42618;51.226;4.910;2024-03-07T17:00:08;23.38;;;12.32;;
56736;SDS011;42618;51.226;4.910;2024-03-07T17:03:34;20.77;;;10.98;;
56736;SDS011;42618;51.226;4.910;2024-03-07T17:06:59;28.13;;;13.40;;
56736;SDS011;42618;51.226;4.910;2024-03-07T17:10:28;23.33;;;12.90;;
56736;SDS011;42618;51.226;4.910;2024-03-07T17:13:55;25.83;;;12.77;;
56736;SDS011;42618;51.226;4.910;2024-03-07T17:17:20;24.08;;;13.88;;
56736;SDS011;42618;51.226;4.910;2024-03-07T17:20:49;22.30;;;11.38;;
56736;SDS011;42618;51.226;4.910;2024-03-07T17:24:17;25.95;;;14.45;;
56736;SDS011;42618;51.226;4.910;2024-03-07T17:27:43;26.73;;;14.32;;
56736;SDS011;42618;51.226;4.910;2024-03-07T17:31:10;26.50;;;14.30;;
56736;SDS011;42618;51.226;4.910;2024-03-07T17:34:35;27.25;;;15.05;;
56736;SDS011;42618;51.226;4.910;2024-03-07T17:38:03;28.17;;;14.90;;
56736;SDS011;42618;51.226;4.910;2024-03-07T17:41:29;25.67;;;15.00;;
56736;SDS011;42618;51.226;4.910;2024-03-07T17:48:25;31.67;;;15.30;;
56736;SDS011;42618;51.226;4.910;2024-03-07T17:51:50;31.27;;;16.58;;
56736;SDS011;42618;51.226;4.910;2024-03-07T17:55:16;33.05;;;15.80;;
56736;SDS011;42618;51.226;4.910;2024-03-07T17:58:42;33.80;;;17.10;;
56736;SDS011;42618;51.226;4.910;2024-03-07T18:02:10;30.63;;;16.48;;
56736;SDS011;42618;51.226;4.910;2024-03-07T18:05:36;31.38;;;15.45;;
56736;SDS011;42618;51.226;4.910;2024-03-07T18:09:02;26.15;;;15.57;;
56736;SDS011;42618;51.226;4.910;2024-03-07T18:12:28;25.77;;;13.43;;
56736;SDS011;42618;51.226;4.910;2024-03-07T18:15:53;25.77;;;14.55;;
56736;SDS011;42618;51.226;4.910;2024-03-07T18:19:20;25.38;;;14.40;;
56736;SDS011;42618;51.226;4.910;2024-03-07T18:26:13;28.95;;;14.77;;
56736;SDS011;42618;51.226;4.910;2024-03-07T18:29:41;29.05;;;14.68;;
56736;SDS011;42618;51.226;4.910;2024-03-07T18:33:07;28.17;;;13.68;;
56736;SDS011;42618;51.226;4.910;2024-03-07T18:36:33;23.90;;;13.73;;
56736;SDS011;42618;51.226;4.910;2024-03-07T18:39:59;27.70;;;14.87;;
56736;SDS011;42618;51.226;4.910;2024-03-07T18:43:24;29.48;;;13.98;;
56736;SDS011;42618;51.226;4.910;2024-03-07T18:46:49;25.75;;;14.25;;
56736;SDS011;42618;51.226;4.910;2024-03-07T18:50:19;33.92;;;17.30;;
56736;SDS011;42618;51.226;4.910;2024-03-07T18:53:49;34.38;;;17.55;;
56736;SDS011;42618;51.226;4.910;2024-03-07T18:57:14;36.47;;;20.02;;
56736;SDS011;42618;51.226;4.910;2024-03-07T19:00:40;27.42;;;14.85;;
56736;SDS011;42618;51.226;4.910;2024-03-07T19:04:05;23.92;;;12.27;;
56736;SDS011;42618;51.226;4.910;2024-03-07T19:07:38;21.50;;;12.07;;
56736;SDS011;42618;51.226;4.910;2024-03-07T19:11:04;21.80;;;11.38;;
56736;SDS011;42618;51.226;4.910;2024-03-07T19:14:30;19.90;;;10.60;;
56736;SDS011;42618;51.226;4.910;2024-03-07T19:17:55;22.23;;;11.48;;
56736;SDS011;42618;51.226;4.910;2024-03-07T19:21:22;20.00;;;10.32;;
56736;SDS011;42618;51.226;4.910;2024-03-07T19:24:47;21.60;;;11.13;;
56736;SDS011;42618;51.226;4.910;2024-03-07T19:28:19;18.65;;;10.43;;
56736;SDS011;42618;51.226;4.910;2024-03-07T19:31:47;18.92;;;9.77;;
56736;SDS011;42618;51.226;4.910;2024-03-07T19:35:14;17.57;;;9.80;;
56736;SDS011;42618;51.226;4.910;2024-03-07T19:38:43;18.17;;;10.05;;
56736;SDS011;42618;51.226;4.910;2024-03-07T19:42:10;18.92;;;9.38;;
56736;SDS011;42618;51.226;4.910;2024-03-07T19:45:39;16.48;;;9.60;;
56736;SDS011;42618;51.226;4.910;2024-03-07T19:49:05;20.30;;;9.68;;
56736;SDS011;42618;51.226;4.910;2024-03-07T19:52:30;18.40;;;9.02;;
56736;SDS011;42618;51.226;4.910;2024-03-07T19:55:57;17.98;;;10.00;;
56736;SDS011;42618;51.226;4.910;2024-03-07T19:59:30;23.02;;;9.70;;
56736;SDS011;42618;51.226;4.910;2024-03-07T20:02:58;16.10;;;9.68;;
56736;SDS011;42618;51.226;4.910;2024-03-07T20:06:23;16.25;;;9.30;;
56736;SDS011;42618;51.226;4.910;2024-03-07T20:09:50;14.55;;;8.38;;
56736;SDS011;42618;51.226;4.910;2024-03-07T20:16:42;31.42;;;18.58;;
56736;SDS011;42618;51.226;4.910;2024-03-07T20:20:10;15.40;;;8.52;;
56736;SDS011;42618;51.226;4.910;2024-03-07T20:23:36;15.73;;;9.23;;
56736;SDS011;42618;51.226;4.910;2024-03-07T20:27:01;16.83;;;8.32;;
56736;SDS011;42618;51.226;4.910;2024-03-07T20:30:27;15.48;;;8.13;;
56736;SDS011;42618;51.226;4.910;2024-03-07T20:33:52;17.92;;;8.25;;
56736;SDS011;42618;51.226;4.910;2024-03-07T20:37:17;16.77;;;8.68;;
56736;SDS011;42618;51.226;4.910;2024-03-07T20:40:43;18.48;;;8.75;;
56736;SDS011;42618;51.226;4.910;2024-03-07T20:44:11;16.40;;;8.45;;
56736;SDS011;42618;51.226;4.910;2024-03-07T20:47:38;16.75;;;7.80;;
56736;SDS011;42618;51.226;4.910;2024-03-07T20:51:04;15.60;;;8.52;;
56736;SDS011;42618;51.226;4.910;2024-03-07T20:54:30;15.63;;;8.15;;
56736;SDS011;42618;51.226;4.910;2024-03-07T20:57:56;17.63;;;7.95;;
56736;SDS011;42618;51.226;4.910;2024-03-07T21:01:22;16.02;;;8.63;;
56736;SDS011;42618;51.226;4.910;2024-03-07T21:04:47;15.05;;;7.93;;
56736;SDS011;42618;51.226;4.910;2024-03-07T21:08:13;20.73;;;9.83;;
56736;SDS011;42618;51.226;4.910;2024-03-07T21:11:42;20.27;;;10.20;;
56736;SDS011;42618;51.226;4.910;2024-03-07T21:15:08;20.25;;;10.23;;
56736;SDS011;42618;51.226;4.910;2024-03-07T21:18:38;20.98;;;11.23;;
56736;SDS011;42618;51.226;4.910;2024-03-07T21:22:03;25.95;;;12.57;;
56736;SDS011;42618;51.226;4.910;2024-03-07T21:28:56;25.67;;;13.38;;
56736;SDS011;42618;51.226;4.910;2024-03-07T21:32:21;26.58;;;12.75;;
56736;SDS011;42618;51.226;4.910;2024-03-07T21:35:47;31.30;;;14.68;;
56736;SDS011;42618;51.226;4.910;2024-03-07T21:39:14;44.33;;;22.00;;
56736;SDS011;42618;51.226;4.910;2024-03-07T21:42:43;34.88;;;15.95;;
56736;SDS011;42618;51.226;4.910;2024-03-07T21:46:09;34.75;;;16.65;;
56736;SDS011;42618;51.226;4.910;2024-03-07T21:49:39;37.47;;;16.77;;
56736;SDS011;42618;51.226;4.910;2024-03-07T21:53:09;35.25;;;18.20;;